Time;durP1;ratioP1;P1;durP2;ratioP2;P2;SDS_P1;SDS_P2;PMS_P1;PMS_P2;Temp;Humidity;BMP_temperature;BMP_pressure;BME280_temperature;BME280_humidity;BME280_pressure;Samples;Min_cycle;Max_cycle;Signal;HPM_P1;HPM_P2
2021/01/30 00:02:06;;;;;;;12.10;5.17;;;;;;;12.85;40.75;154491.59;1737726;81;21375;-66
2021/01/30 00:04:39;;;;;;;11.08;5.65;;;;;;;12.88;41.56;154499.48;1685656;85;21380;-66
2021/01/30 00:07:11;;;;;;;10.40;4.97;;;;;;;13.06;41.91;154548.16;1645992;85;21327;-66
2021/01/30 00:09:44;;;;;;;10.53;5.85;;;;;;;13.12;41.48;154562.59;1709186;83;21284;-65
2021/01/30 00:12:17;;;;;;;10.38;5.65;;;;;;;12.87;41.03;154496.86;1684289;84;21275;-66
2021/01/30 00:14:49;;;;;;;12.37;6.12;;;;;;;12.72;40.89;154458.78;1735212;82;21214;-65
2021/01/30 00:17:21;;;;;;;12.03;5.85;;;;;;;12.96;41.73;154520.59;1720262;83;21296;-66
2021/01/30 00:19:54;;;;;;;11.45;6.35;;;;;;;12.77;40.66;154471.94;1698434;84;21414;-66
2021/01/30 00:22:26;;;;;;;11.43;5.70;;;;;;;12.74;41.53;154462.70;1661420;86;21241;-66
2021/01/30 00:24:59;;;;;;;13.30;6.87;;;;;;;12.77;41.83;154471.94;1678076;84;21870;-66
2021/01/30 00:27:31;;;;;;;10.08;5.70;;;;;;;12.80;41.50;154478.50;1714745;83;21237;-65
2021/01/30 00:30:07;;;;;;;13.75;7.53;;;;;;;12.68;41.67;154446.97;1704429;83;21310;-65
2021/01/30 00:32:39;;;;;;;11.45;5.67;;;;;;;12.55;41.45;154412.81;1729792;82;21367;-66
2021/01/30 00:35:12;;;;;;;11.60;6.97;;;;;;;12.69;41.62;154449.59;1699190;84;21248;-67
2021/01/30 00:37:45;;;;;;;9.60;5.40;;;;;;;12.72;42.07;154457.48;1720101;83;21886;-66
2021/01/30 00:40:18;;;;;;;11.73;6.10;;;;;;;12.71;41.28;154454.86;1678387;84;21232;-66
2021/01/30 00:42:50;;;;;;;10.80;6.50;;;;;;;12.52;41.67;154404.92;1679731;85;21205;-66
2021/01/30 00:45:25;;;;;;;10.18;5.97;;;;;;;12.73;41.83;154461.41;1689722;83;21399;-65
2021/01/30 00:47:58;;;;;;;12.58;6.28;;;;;;;12.78;41.23;154473.23;1668064;85;21245;-66
2021/01/30 00:50:31;;;;;;;11.90;6.83;;;;;;;13.10;42.18;154558.69;1691166;85;21233;-66
2021/01/30 00:53:05;;;;;;;11.70;5.42;;;;;;;13.35;42.38;154623.03;1714345;83;21359;-66
2021/01/30 00:55:40;;;;;;;13.62;7.12;;;;;;;13.46;42.72;154651.95;1719919;83;21316;-66
2021/01/30 00:58:12;;;;;;;14.33;6.03;;;;;;;13.60;42.42;154691.39;1705973;83;21740;-66
2021/01/30 01:00:45;;;;;;;13.08;6.47;;;;;;;13.48;41.16;154658.56;1736286;82;21324;-66
2021/01/30 01:03:21;;;;;;;8.95;5.40;;;;;;;13.57;41.69;154682.20;1714023;82;21335;-66
2021/01/30 01:05:57;;;;;;;12.40;6.25;;;;;;;13.40;40.48;154637.50;1744572;82;21174;-65
2021/01/30 01:08:30;;;;;;;14.25;7.03;;;;;;;13.73;42.60;154725.58;1744256;82;21185;-66
2021/01/30 01:11:04;;;;;;;9.35;5.58;;;;;;;13.73;42.25;154725.58;1745410;81;21224;-66
2021/01/30 01:13:36;;;;;;;12.18;6.28;;;;;;;13.64;41.14;154700.58;1741632;82;21247;-66
2021/01/30 01:16:09;;;;;;;11.12;6.80;;;;;;;13.31;40.59;154613.84;1744943;82;21255;-66
2021/01/30 01:18:41;;;;;;;9.90;6.12;;;;;;;13.34;40.91;154620.41;1742838;82;21216;-66
2021/01/30 01:21:13;;;;;;;15.00;6.50;;;;;;;13.56;41.22;154680.86;1745167;82;22441;-66
2021/01/30 01:23:46;;;;;;;11.33;6.70;;;;;;;13.63;41.16;154699.28;1713132;82;21268;-66
2021/01/30 01:26:19;;;;;;;17.98;7.42;;;;;;;13.61;41.07;154692.69;1712027;84;21253;-66
2021/01/30 01:28:51;;;;;;;13.70;7.08;;;;;;;13.28;41.21;154605.95;1738724;82;21395;-66
2021/01/30 01:31:24;;;;;;;13.72;6.60;;;;;;;13.23;40.66;154592.84;1744789;82;21343;-65
2021/01/30 01:33:57;;;;;;;12.20;5.85;;;;;;;12.97;40.62;154523.17;1745191;81;21224;-66
2021/01/30 01:36:30;;;;;;;12.18;7.25;;;;;;;12.87;41.05;154498.20;1737427;82;21244;-66
2021/01/30 01:39:04;;;;;;;14.60;6.50;;;;;;;12.82;41.30;154483.75;1745193;82;21272;-65
2021/01/30 01:41:36;;;;;;;16.52;7.35;;;;;;;12.71;41.69;154454.86;1743855;81;21192;-65
2021/01/30 01:44:09;;;;;;;11.15;5.90;;;;;;;12.41;40.82;154376.05;1738456;82;21359;-65
2021/01/30 01:46:41;;;;;;;13.60;6.58;;;;;;;12.52;41.42;154403.64;1742478;82;21264;-66
2021/01/30 01:49:17;;;;;;;11.97;6.80;;;;;;;12.57;41.51;154416.73;1745026;82;22299;-67
2021/01/30 01:52:06;;;;;;;13.88;6.65;;;;;;;12.66;42.00;154441.70;1744895;81;21225;-66
2021/01/30 01:54:39;;;;;;;9.95;6.15;;;;;;;12.39;41.63;154370.78;1736768;82;21233;-65
2021/01/30 01:57:14;;;;;;;13.08;6.47;;;;;;;12.30;41.61;154345.87;1712100;82;21221;-66
2021/01/30 01:59:50;;;;;;;15.55;6.50;;;;;;;12.41;42.09;154376.05;1746717;81;21221;-66
2021/01/30 02:02:27;;;;;;;11.45;5.85;;;;;;;12.53;42.09;154406.27;1693805;84;21785;-66
2021/01/30 02:05:12;;;;;;;13.32;5.53;;;;;;;12.53;41.92;154406.27;1716161;83;21696;-65
2021/01/30 02:07:46;;;;;;;12.88;6.47;;;;;;;12.56;42.10;154414.16;1717208;83;21379;-67
2021/01/30 02:10:23;;;;;;;13.80;6.55;;;;;;;12.59;42.78;154424.63;1708589;84;21241;-67
2021/01/30 02:13:01;;;;;;;14.78;6.50;;;;;;;12.64;43.18;154437.78;1705764;84;21689;-67
2021/01/30 02:15:33;;;;;;;27.42;10.93;;;;;;;12.78;43.20;154473.23;1698307;84;21208;-67
2021/01/30 02:18:31;;;;;;;24.25;9.35;;;;;;;12.85;43.10;154491.59;1694417;83;21201;-67
2021/01/30 02:21:29;;;;;;;28.47;12.58;;;;;;;12.86;43.07;154495.56;1694276;84;21682;-67
2021/01/30 02:24:52;;;;;;;25.25;10.35;;;;;;;12.91;43.03;154508.72;1697469;84;21353;-67
2021/01/30 02:27:29;;;;;;;23.92;9.10;;;;;;;12.86;43.19;154494.22;1702153;83;21745;-68
2021/01/30 02:30:24;;;;;;;20.35;8.48;;;;;;;12.89;43.30;154503.52;1696489;84;21337;-68
2021/01/30 02:33:22;;;;;;;22.22;8.65;;;;;;;12.95;43.47;154519.25;1710625;84;21350;-67
2021/01/30 02:36:05;;;;;;;16.80;9.90;;;;;;;13.07;43.47;154549.50;1710393;84;21378;-67
2021/01/30 02:38:40;;;;;;;27.37;11.85;;;;;;;13.06;43.60;154546.86;1726358;83;21367;-68
2021/01/30 02:41:21;;;;;;;28.87;11.83;;;;;;;13.10;43.58;154558.69;1691898;84;21930;-67
2021/01/30 02:43:53;;;;;;;22.80;11.00;;;;;;;13.15;43.60;154571.78;1710373;84;21228;-68
2021/01/30 02:46:31;;;;;;;34.10;13.85;;;;;;;13.09;43.34;154556.05;1676785;83;21284;-68
2021/01/30 02:49:09;;;;;;;39.15;17.65;;;;;;;13.10;43.51;154557.34;1726369;83;21343;-67
2021/01/30 02:51:43;;;;;;;31.27;14.35;;;;;;;13.09;43.45;154554.70;1726096;83;21383;-68
2021/01/30 02:54:16;;;;;;;37.90;15.88;;;;;;;13.04;43.55;154541.59;1726389;83;21328;-68
2021/01/30 02:56:48;;;;;;;32.48;14.33;;;;;;;13.00;43.74;154532.41;1726413;83;21359;-68
2021/01/30 02:59:22;;;;;;;40.90;16.15;;;;;;;13.10;43.38;154558.69;1723359;83;21380;-68
2021/01/30 03:01:54;;;;;;;58.45;24.55;;;;;;;13.05;43.43;154544.22;1726000;83;21851;-68
2021/01/30 03:04:28;;;;;;;52.27;21.80;;;;;;;13.02;43.40;154536.34;1725767;83;21241;-68
2021/01/30 03:07:17;;;;;;;41.02;16.25;;;;;;;13.00;43.38;154531.06;1725019;83;21387;-68
2021/01/30 03:10:26;;;;;;;30.25;13.98;;;;;;;13.00;43.38;154532.41;1697013;84;21650;-67
2021/01/30 03:13:31;;;;;;;29.75;12.25;;;;;;;12.97;43.19;154523.17;1714484;83;21206;-68
2021/01/30 03:16:18;;;;;;;34.03;13.83;;;;;;;12.94;43.29;154515.33;1702200;83;21331;-68
2021/01/30 03:19:01;;;;;;;28.87;13.00;;;;;;;12.88;43.30;154499.48;1725985;83;21191;-68
2021/01/30 03:21:33;;;;;;;28.40;11.88;;;;;;;13.00;42.82;154531.06;1684508;84;21335;-69
2021/01/30 03:24:06;;;;;;;45.45;18.60;;;;;;;12.79;43.33;154475.86;1726707;82;21351;-68
2021/01/30 03:26:45;;;;;;;45.28;20.08;;;;;;;12.61;43.52;154429.89;1727573;82;21320;-68
2021/01/30 03:29:19;;;;;;;42.60;17.00;;;;;;;12.59;43.56;154423.34;1719906;82;21208;-68
2021/01/30 03:31:51;;;;;;;41.05;17.27;;;;;;;12.74;43.57;154462.70;1726264;82;21367;-68
2021/01/30 03:34:24;;;;;;;42.08;17.87;;;;;;;12.83;43.30;154486.39;1710461;84;21193;-68
2021/01/30 03:36:56;;;;;;;32.93;15.48;;;;;;;12.82;43.17;154485.05;1709861;84;21319;-68
2021/01/30 03:39:29;;;;;;;40.15;16.62;;;;;;;12.85;43.07;154491.59;1717999;83;21363;-67
2021/01/30 03:42:01;;;;;;;45.40;17.48;;;;;;;12.83;42.97;154486.39;1703627;83;21174;-68
2021/01/30 03:44:34;;;;;;;41.80;18.48;;;;;;;12.87;43.16;154498.20;1713916;83;21375;-68
2021/01/30 03:47:07;;;;;;;46.05;16.87;;;;;;;13.06;43.05;154548.16;1726311;83;21308;-68
2021/01/30 03:49:39;;;;;;;50.70;17.85;;;;;;;13.10;42.86;154558.69;1710478;83;21897;-68
2021/01/30 03:52:11;;;;;;;81.40;23.73;;;;;;;13.05;43.23;154545.52;1725221;83;21395;-68
2021/01/30 03:54:44;;;;;;;68.87;21.02;;;;;;;13.20;43.11;154583.61;1723768;83;21241;-68
2021/01/30 03:57:16;;;;;;;60.08;21.93;;;;;;;13.27;43.21;154602.03;1726688;82;21174;-68
2021/01/30 03:59:51;;;;;;;53.60;19.90;;;;;;;13.25;43.10;154596.77;1716898;82;21228;-68
2021/01/30 04:02:23;;;;;;;57.73;23.50;;;;;;;13.19;42.89;154581.03;1695807;83;21178;-68
2021/01/30 04:04:56;;;;;;;71.77;24.90;;;;;;;13.14;43.39;154569.16;1698828;84;21692;-68
2021/01/30 04:07:28;;;;;;;68.00;24.80;;;;;;;13.20;43.35;154583.61;1712855;84;21189;-68
2021/01/30 04:10:01;;;;;;;71.62;27.50;;;;;;;13.20;43.22;154583.61;1712700;84;21281;-68
2021/01/30 04:12:33;;;;;;;66.05;24.98;;;;;;;13.19;43.35;154582.31;1699706;84;21276;-69
2021/01/30 04:15:07;;;;;;;70.45;25.20;;;;;;;13.24;43.27;154594.12;1720265;82;21383;-67
2021/01/30 04:17:40;;;;;;;58.17;22.30;;;;;;;13.28;43.12;154605.95;1712889;82;21265;-68
2021/01/30 04:20:13;;;;;;;43.20;17.75;;;;;;;13.19;43.05;154582.31;1712824;84;21210;-68
2021/01/30 04:22:45;;;;;;;47.48;16.82;;;;;;;13.21;43.07;154587.58;1745933;82;21174;-69
2021/01/30 04:25:20;;;;;;;38.25;15.35;;;;;;;13.14;43.30;154569.16;1744132;82;21654;-68
2021/01/30 04:27:53;;;;;;;42.95;17.90;;;;;;;13.16;43.23;154574.42;1725572;82;21339;-68
2021/01/30 04:30:28;;;;;;;43.13;18.48;;;;;;;13.04;43.15;154541.59;1737505;81;21712;-69
2021/01/30 04:33:02;;;;;;;43.00;15.50;;;;;;;12.96;43.35;154521.87;1741431;82;21893;-69
2021/01/30 04:35:36;;;;;;;39.10;16.55;;;;;;;13.02;43.18;154537.63;1740376;82;22373;-68
2021/01/30 04:38:08;;;;;;;38.00;15.50;;;;;;;12.86;42.36;154494.22;1715110;82;21693;-68
2021/01/30 04:40:45;;;;;;;32.95;14.28;;;;;;;12.58;41.53;154422.00;1711763;84;21264;-68
2021/01/30 04:43:35;;;;;;;25.50;11.90;;;;;;;12.30;42.28;154345.87;1715421;82;21241;-68
2021/01/30 04:46:25;;;;;;;28.70;11.20;;;;;;;12.23;42.79;154328.81;1729230;82;21154;-68
2021/01/30 04:49:18;;;;;;;29.57;13.90;;;;;;;12.25;43.04;154334.06;1712807;82;21190;-68
2021/01/30 04:51:58;;;;;;;31.50;14.03;;;;;;;12.35;42.90;154358.97;1722440;82;21336;-68
2021/01/30 04:55:08;;;;;;;36.70;15.23;;;;;;;12.41;42.92;154376.05;1693820;84;21221;-68
2021/01/30 04:58:15;;;;;;;36.13;13.88;;;;;;;12.34;42.82;154356.34;1745080;82;21177;-69
2021/01/30 05:01:05;;;;;;;38.08;14.60;;;;;;;12.30;42.95;154347.16;1732793;82;21237;-68
2021/01/30 05:04:01;;;;;;;45.40;17.55;;;;;;;12.31;43.02;154348.50;1712739;82;21248;-69
2021/01/30 05:07:19;;;;;;;45.25;14.33;;;;;;;12.25;43.09;154332.72;1713142;82;21186;-69
2021/01/30 05:09:59;;;;;;;38.73;15.03;;;;;;;12.22;43.14;154326.17;1738879;82;21209;-68
2021/01/30 05:12:48;;;;;;;43.08;16.05;;;;;;;12.15;42.90;154307.77;1745734;82;21708;-68
2021/01/30 05:15:43;;;;;;;29.87;12.03;;;;;;;12.06;43.04;154282.86;1736203;82;21213;-68
2021/01/30 05:18:22;;;;;;;31.62;12.73;;;;;;;11.91;42.82;154244.81;1745804;82;21820;-69
2021/01/30 05:21:11;;;;;;;24.65;11.78;;;;;;;11.81;42.66;154217.23;1734528;82;21205;-69
2021/01/30 05:23:47;;;;;;;27.05;11.20;;;;;;;11.65;42.89;154175.22;1700390;83;21202;-69
2021/01/30 05:26:48;;;;;;;19.20;9.90;;;;;;;11.57;43.24;154152.97;1712577;84;21214;-68
2021/01/30 05:29:49;;;;;;;;;;;;;;;11.45;43.50;154122.70;1719830;82;21335;-68
2021/01/30 05:32:34;;;;;;;24.80;9.75;;;;;;;11.62;43.72;154167.39;1728885;82;20238;-68
2021/01/30 05:35:27;;;;;;;26.30;10.53;;;;;;;11.74;43.68;154198.87;1710789;82;21221;-68
2021/01/30 05:38:05;;;;;;;22.37;10.60;;;;;;;11.83;42.93;154222.50;1712804;82;21240;-67
2021/01/30 05:40:47;;;;;;;24.43;10.55;;;;;;;11.78;43.21;154210.69;1716400;82;21835;-67
2021/01/30 05:43:46;;;;;;;23.95;11.00;;;;;;;11.71;42.64;154192.28;1745876;82;21213;-68
2021/01/30 05:46:26;;;;;;;27.50;11.65;;;;;;;11.55;42.83;154149.00;1740712;81;21328;-67
2021/01/30 05:49:01;;;;;;;26.30;10.72;;;;;;;11.45;43.05;154122.70;1735941;82;21174;-68
2021/01/30 05:51:49;;;;;;;24.60;11.35;;;;;;;11.50;43.43;154135.84;1726080;82;21372;-67
2021/01/30 05:54:22;;;;;;;28.00;12.88;;;;;;;11.67;43.38;154179.19;1744072;82;21161;-68
2021/01/30 05:56:55;;;;;;;23.35;11.97;;;;;;;11.69;42.76;154187.03;1739668;82;21316;-68
2021/01/30 05:59:31;;;;;;;25.43;12.60;;;;;;;11.57;42.33;154154.25;1745340;82;21914;-68
2021/01/30 06:02:18;;;;;;;29.63;13.88;;;;;;;11.48;42.29;154129.25;1744920;82;21220;-68
2021/01/30 06:04:51;;;;;;;31.48;13.38;;;;;;;11.41;42.52;154112.20;1739233;82;21705;-69
2021/01/30 06:07:35;;;;;;;47.60;22.30;;;;;;;11.44;42.65;154118.80;1728747;82;21248;-69
2021/01/30 06:10:29;;;;;;;254.87;121.85;;;;;;;11.45;42.76;154122.70;1745942;81;21205;-67
2021/01/30 06:13:15;;;;;;;254.23;141.20;;;;;;;11.56;43.09;154150.34;1711223;82;21209;-64
2021/01/30 06:15:52;;;;;;;106.32;65.05;;;;;;;11.71;43.07;154191.00;1727793;80;21236;-69
2021/01/30 06:18:40;;;;;;;54.95;31.07;;;;;;;11.80;43.17;154214.61;1721954;80;21290;-68
2021/01/30 06:21:22;;;;;;;40.55;19.70;;;;;;;11.95;42.82;154255.28;1721450;80;21366;-66
2021/01/30 06:24:07;;;;;;;36.95;15.90;;;;;;;12.12;42.88;154298.59;1719238;82;21364;-67
2021/01/30 06:26:46;;;;;;;82.95;29.75;;;;;;;12.18;42.56;154314.36;1719196;82;21895;-71
2021/01/30 06:29:37;;;;;;;37.98;17.00;;;;;;;12.41;43.01;154374.75;1719068;82;21342;-68
2021/01/30 06:32:27;;;;;;;64.85;28.23;;;;;;;12.61;43.30;154428.59;1720133;82;21177;-68
2021/01/30 06:35:22;;;;;;;46.57;19.27;;;;;;;12.74;43.27;154464.05;1728921;82;21180;-73
2021/01/30 06:37:58;;;;;;;45.83;20.20;;;;;;;12.86;43.23;154494.22;1721977;80;21264;-75
2021/01/30 06:40:57;;;;;;;30.10;14.33;;;;;;;12.95;42.86;154519.25;1718179;81;21989;-72
2021/01/30 06:43:36;;;;;;;37.00;15.48;;;;;;;12.95;43.41;154519.25;1722742;80;21834;-73
2021/01/30 06:46:15;;;;;;;52.17;20.05;;;;;;;13.14;43.79;154567.86;1719037;82;21320;-74
2021/01/30 06:48:51;;;;;;;45.58;18.55;;;;;;;13.34;43.96;154620.41;1722150;82;21241;-68
2021/01/30 06:51:36;;;;;;;41.98;18.25;;;;;;;13.47;44.20;154654.58;1722068;82;21898;-68
2021/01/30 06:54:26;;;;;;;40.15;20.37;;;;;;;13.77;44.07;154734.77;1723719;81;21735;-69
2021/01/30 06:57:20;;;;;;;35.45;15.80;;;;;;;14.00;43.81;154795.23;1722346;80;21196;-74
2021/01/30 07:00:20;;;;;;;30.45;15.03;;;;;;;13.76;43.99;154732.13;1717750;82;21398;-73
2021/01/30 07:02:56;;;;;;;46.83;22.15;;;;;;;13.85;44.27;154757.12;1720028;82;21232;-72
2021/01/30 07:05:48;;;;;;;30.57;15.38;;;;;;;13.96;44.44;154784.70;1717910;82;21375;-69
2021/01/30 07:08:51;;;;;;;33.58;16.50;;;;;;;14.03;44.53;154803.14;1718620;82;21249;-72
2021/01/30 07:11:37;;;;;;;34.27;14.85;;;;;;;14.13;44.84;154830.78;1718254;82;21403;-71
2021/01/30 07:14:31;;;;;;;28.77;12.53;;;;;;;14.32;44.87;154879.44;1718529;82;21221;-68
2021/01/30 07:17:32;;;;;;;24.23;12.85;;;;;;;14.41;44.81;154903.16;1720871;82;21325;-70
2021/01/30 07:20:12;;;;;;;25.48;12.05;;;;;;;14.45;44.43;154915.00;1725159;80;21367;-68
2021/01/30 07:23:08;;;;;;;31.47;13.60;;;;;;;14.50;44.84;154929.45;1723160;80;21383;-70
2021/01/30 07:26:04;;;;;;;27.20;13.45;;;;;;;14.70;44.77;154980.72;1720460;80;22069;-69
2021/01/30 07:29:02;;;;;;;27.15;13.90;;;;;;;14.81;44.90;155011.00;1725025;82;21371;-75
2021/01/30 07:31:39;;;;;;;26.55;14.40;;;;;;;14.96;45.01;155049.16;1721118;82;21252;-71
2021/01/30 07:34:40;;;;;;;31.68;15.78;;;;;;;15.10;44.85;155086.02;1718580;80;21328;-73
2021/01/30 07:37:17;;;;;;;42.38;20.05;;;;;;;15.13;44.84;155095.22;1717831;82;21221;-76
2021/01/30 07:39:58;;;;;;;40.88;17.98;;;;;;;15.21;44.74;155116.31;1718185;80;21347;-80
2021/01/30 07:42:42;;;;;;;45.40;19.12;;;;;;;15.26;44.91;155129.50;1730069;81;21347;-71
2021/01/30 07:45:24;;;;;;;42.67;18.65;;;;;;;15.32;45.20;155143.97;1726451;82;21339;-75
2021/01/30 07:48:25;;;;;;;57.38;24.18;;;;;;;15.60;45.22;155220.36;1743241;82;21220;-72
2021/01/30 07:51:07;;;;;;;32.10;14.87;;;;;;;15.64;44.93;155229.56;1742593;80;21216;-67
2021/01/30 07:53:40;;;;;;;30.12;14.75;;;;;;;15.63;44.37;155226.94;1742477;80;21359;-72
2021/01/30 07:56:24;;;;;;;49.67;21.20;;;;;;;15.39;43.73;155165.03;1728074;82;21166;-72
2021/01/30 07:59:21;;;;;;;49.85;19.20;;;;;;;15.30;44.74;155138.70;1746182;80;21371;-70
2021/01/30 08:02:18;;;;;;;63.28;25.12;;;;;;;15.36;44.84;155154.53;1740983;80;21299;-66
2021/01/30 08:05:18;;;;;;;46.88;18.70;;;;;;;15.47;45.06;155184.78;1724943;80;21184;-74
2021/01/30 08:07:57;;;;;;;39.42;17.17;;;;;;;15.68;44.67;155240.13;1725606;82;21236;-69
2021/01/30 08:11:10;;;;;;;30.65;14.33;;;;;;;15.87;41.29;155290.16;1728643;82;21138;-72
2021/01/30 08:13:53;;;;;;;26.97;12.23;;;;;;;15.59;40.75;155217.73;1738169;82;21379;-69
2021/01/30 08:17:07;;;;;;;26.17;13.43;;;;;;;15.31;41.16;155141.34;1726334;81;21260;-79
2021/01/30 08:19:53;;;;;;;25.75;12.93;;;;;;;14.87;39.49;155026.78;1720133;80;21991;-71
2021/01/30 08:22:37;;;;;;;19.48;10.53;;;;;;;15.01;42.38;155063.63;1723247;82;21177;-69
2021/01/30 08:25:14;;;;;;;21.23;11.30;;;;;;;15.21;42.45;155116.31;1727750;82;21430;-69
2021/01/30 08:27:52;;;;;;;19.42;9.63;;;;;;;14.92;42.55;155038.66;1726539;82;21441;-71
2021/01/30 08:30:24;;;;;;;23.35;13.00;;;;;;;15.14;42.07;155096.56;1727705;82;21335;-75
2021/01/30 08:33:04;;;;;;;25.40;11.33;;;;;;;14.90;42.38;155033.39;1726850;80;21446;-69
2021/01/30 08:35:48;;;;;;;22.25;11.20;;;;;;;14.84;44.93;155017.58;1728289;82;21763;-71
2021/01/30 08:38:26;;;;;;;24.32;11.88;;;;;;;14.84;42.00;155018.91;1725946;82;21413;-81
2021/01/30 08:41:14;;;;;;;18.10;9.68;;;;;;;14.89;44.36;155030.75;1727274;82;21355;-76
2021/01/30 08:43:53;;;;;;;22.37;10.90;;;;;;;15.07;43.75;155078.11;1721280;82;21410;-70
2021/01/30 08:46:41;;;;;;;26.80;13.10;;;;;;;15.28;44.05;155133.48;1725854;82;21366;-71
2021/01/30 08:49:23;;;;;;;23.40;12.58;;;;;;;15.45;44.40;155179.50;1726267;80;21236;-70
2021/01/30 08:52:17;;;;;;;28.17;13.05;;;;;;;15.74;44.38;155255.91;1726323;82;21326;-71
2021/01/30 08:54:50;;;;;;;27.32;13.38;;;;;;;16.26;44.67;155392.91;1727328;82;21795;-68
2021/01/30 08:57:39;;;;;;;31.48;15.55;;;;;;;16.51;43.92;155460.16;1725549;82;21950;-70
2021/01/30 09:00:38;;;;;;;40.15;18.02;;;;;;;16.62;43.25;155489.14;1726994;82;21390;-71
2021/01/30 09:03:11;;;;;;;31.35;15.05;;;;;;;16.83;43.78;155544.48;1726025;82;21347;-68
2021/01/30 09:05:44;;;;;;;31.37;14.43;;;;;;;17.13;43.95;155624.91;1725390;81;21985;-69
2021/01/30 09:08:36;;;;;;;30.68;14.87;;;;;;;17.06;47.81;155606.47;1720608;80;21355;-69
2021/01/30 09:11:47;;;;;;;38.92;18.17;;;;;;;17.22;43.40;155648.62;1718182;82;21331;-72
2021/01/30 09:14:25;;;;;;;32.03;15.40;;;;;;;17.09;44.65;155614.34;1718155;82;21390;-70
2021/01/30 09:17:21;;;;;;;31.70;14.85;;;;;;;17.16;46.62;155631.48;1725021;80;21217;-82
2021/01/30 09:20:08;;;;;;;29.67;14.73;;;;;;;17.39;46.53;155694.84;1722592;82;21280;-68
2021/01/30 09:23:15;;;;;;;31.02;15.28;;;;;;;17.44;47.55;155706.70;1723031;80;21229;-72
2021/01/30 09:26:02;;;;;;;32.10;15.98;;;;;;;17.30;47.96;155671.11;1719328;80;21439;-71
2021/01/30 09:28:35;;;;;;;30.23;15.20;;;;;;;17.29;47.61;155668.47;1721202;82;21331;-69
2021/01/30 09:31:16;;;;;;;33.40;14.78;;;;;;;17.06;48.58;155605.13;1719699;82;21394;-72
2021/01/30 09:34:16;;;;;;;40.75;19.20;;;;;;;17.25;46.81;155656.56;1725775;80;21224;-72
2021/01/30 09:36:52;;;;;;;33.20;17.25;;;;;;;17.43;46.22;155705.41;1721020;80;21387;-72
2021/01/30 09:39:35;;;;;;;38.15;17.30;;;;;;;17.57;45.64;155742.34;1726005;80;21858;-71
2021/01/30 09:42:19;;;;;;;40.35;19.50;;;;;;;17.37;50.29;155688.25;1718428;82;21248;-70
2021/01/30 09:45:15;;;;;;;61.68;25.25;;;;;;;17.46;50.62;155711.98;1723480;80;21423;-73
2021/01/30 09:47:50;;;;;;;45.63;21.95;;;;;;;17.71;48.58;155777.94;1720321;82;21323;-70
2021/01/30 09:50:30;;;;;;;39.53;19.30;;;;;;;17.91;47.44;155830.70;1726840;82;21272;-77
2021/01/30 09:53:12;;;;;;;25.27;13.85;;;;;;;17.98;49.05;155849.20;1730649;80;21271;-69
2021/01/30 09:55:44;;;;;;;22.10;10.55;;;;;;;17.99;47.11;155853.14;1727141;80;21221;-67
2021/01/30 09:58:22;;;;;;;18.05;9.15;;;;;;;17.98;46.82;155850.50;1723478;80;21362;-68
2021/01/30 10:00:54;;;;;;;20.60;9.78;;;;;;;17.90;46.43;155829.41;1726267;82;21378;-67
2021/01/30 10:03:42;;;;;;;22.65;11.97;;;;;;;17.84;47.24;155813.55;1720436;80;21393;-68
2021/01/30 10:06:18;;;;;;;26.57;14.25;;;;;;;17.73;48.27;155784.53;1693828;82;21212;-69
2021/01/30 10:08:51;;;;;;;20.88;11.50;;;;;;;17.72;46.82;155780.59;1730679;82;21343;-70
2021/01/30 10:11:24;;;;;;;22.77;11.53;;;;;;;23.98;100.00;157446.19;1726519;80;21364;-69
2021/01/30 10:14:00;;;;;;;29.87;14.90;;;;;;;22.99;44.08;157183.66;1697509;80;21369;-72
2021/01/30 10:16:33;;;;;;;27.70;13.22;;;;;;;22.19;46.71;156970.33;1725067;81;21367;-68
2021/01/30 10:19:25;;;;;;;28.90;12.20;;;;;;;20.89;45.31;156622.22;1726571;79;21445;-70
2021/01/30 10:21:58;;;;;;;25.77;12.75;;;;;;;20.24;44.27;156450.28;1728165;82;21201;-77
2021/01/30 10:24:33;;;;;;;24.18;11.28;;;;;;;20.09;43.57;156411.91;1728092;82;21374;-70
2021/01/30 10:27:25;;;;;;;27.67;11.73;;;;;;;19.66;45.70;156296.92;1730799;82;21355;-72
2021/01/30 10:29:57;;;;;;;25.43;12.75;;;;;;;19.81;44.06;156335.23;1730909;82;21385;-72
2021/01/30 10:32:51;;;;;;;25.60;11.35;;;;;;;19.70;44.47;156306.17;1730306;82;21308;-68
2021/01/30 10:35:48;;;;;;;28.52;12.65;;;;;;;19.66;44.69;156296.92;1727840;82;21268;-72
2021/01/30 10:38:26;;;;;;;28.10;12.33;;;;;;;19.65;43.48;156294.28;1731222;80;21217;-71
2021/01/30 10:41:07;;;;;;;26.25;13.80;;;;;;;19.41;43.93;156229.50;1726463;82;21394;-66
2021/01/30 10:43:41;;;;;;;27.50;13.90;;;;;;;19.16;43.41;156163.45;1700342;82;21228;-76
2021/01/30 10:46:33;;;;;;;23.15;11.85;;;;;;;18.82;44.15;156073.61;1726320;80;21335;-71
2021/01/30 10:49:19;;;;;;;18.80;10.38;;;;;;;18.65;46.22;156027.39;1725698;82;21268;-72
2021/01/30 10:52:14;;;;;;;18.55;9.93;;;;;;;18.57;46.32;156007.64;1725968;80;21370;-72
2021/01/30 10:54:47;;;;;;;25.65;13.48;;;;;;;20.97;47.72;156644.72;1726512;82;21331;-71
2021/01/30 10:57:24;;;;;;;23.32;12.13;;;;;;;21.04;47.44;156664.58;1726993;80;21381;-68
2021/01/30 11:00:02;;;;;;;24.85;13.70;;;;;;;20.79;44.55;156595.78;1732765;80;21334;-74
2021/01/30 11:02:45;;;;;;;26.37;12.45;;;;;;;20.50;100.00;156519.00;1728548;80;21331;-68
2021/01/30 11:05:25;;;;;;;28.57;13.28;;;;;;;23.45;48.73;157304.27;1734463;80;21363;-69
2021/01/30 11:08:04;;;;;;;27.73;14.20;;;;;;;23.74;45.18;157382.48;1732305;80;21889;-74
2021/01/30 11:10:47;;;;;;;23.15;13.18;;;;;;;25.33;88.55;60083.41;1731175;80;21444;-68
2021/01/30 11:13:29;;;;;;;22.25;12.47;;;;;;;23.01;62.82;157188.95;1732975;80;21359;-69
2021/01/30 11:16:21;;;;;;;20.80;10.63;;;;;;;22.56;59.27;157067.09;1736536;80;21198;-67
2021/01/30 11:18:54;;;;;;;23.18;12.45;;;;;;;22.92;100.00;157165.08;1730103;81;21695;-71
2021/01/30 11:21:41;;;;;;;24.72;12.45;;;;;;;23.40;60.50;157292.34;1729315;80;21165;-77
2021/01/30 11:24:29;;;;;;;23.75;13.93;;;;;;;22.90;57.50;157158.47;1731664;80;21383;-70
2021/01/30 11:27:02;;;;;;;30.40;14.25;;;;;;;22.91;56.21;157161.12;1727495;82;22192;-71
2021/01/30 11:29:43;;;;;;;29.02;13.83;;;;;;;22.34;59.25;157010.13;1730858;82;21221;-70
2021/01/30 11:32:17;;;;;;;;;;;;;;;23.64;54.67;157354.67;1737691;80;21880;-72
2021/01/30 11:35:02;;;;;;;24.45;12.50;;;;;;;22.39;54.42;157022.03;1732812;81;20304;-78
2021/01/30 11:37:35;;;;;;;24.35;12.25;;;;;;;27.65;89.29;158427.88;1674196;83;21205;-68
2021/01/30 11:40:10;;;;;;;31.48;14.00;;;;;;;24.07;60.31;157470.09;1694175;82;21768;-70
2021/01/30 11:42:44;;;;;;;29.63;13.08;;;;;;;21.98;74.34;140681.88;1677442;83;21359;-70
2021/01/30 11:45:17;;;;;;;24.55;12.93;;;;;;;21.03;100.00;155394.80;1677957;83;21404;-71
2021/01/30 11:47:49;;;;;;;22.13;12.90;;;;;;;20.12;84.20;69486.91;1694427;82;21454;-72
2021/01/30 11:50:22;;;;;;;27.02;12.93;;;;;;;21.17;94.12;124107.59;1679035;83;21384;-72
2021/01/30 11:52:54;;;;;;;22.35;13.18;;;;;;;19.90;87.25;85216.67;1696419;82;21244;-69
2021/01/30 11:55:26;;;;;;;23.05;12.25;;;;;;;19.72;89.04;92733.96;1682171;83;21390;-68
2021/01/30 11:57:59;;;;;;;24.07;12.88;;;;;;;20.37;86.81;70577.80;1697086;82;21240;-68
2021/01/30 12:00:31;;;;;;;25.10;13.10;;;;;;;20.27;86.38;62810.30;1675110;83;21595;-66
2021/01/30 12:03:28;;;;;;;21.87;11.55;;;;;;;19.46;86.48;59829.59;1687759;82;21378;-69
2021/01/30 12:06:03;;;;;;;21.07;11.55;;;;;;;18.99;87.42;61784.49;1684715;83;21321;-70
2021/01/30 12:08:36;;;;;;;23.15;12.82;;;;;;;22.62;88.85;90745.09;1692750;82;21245;-73
2021/01/30 12:11:10;;;;;;;20.17;12.37;;;;;;;25.37;100.00;157817.78;1679306;83;21422;-71
2021/01/30 12:13:42;;;;;;;22.35;12.03;;;;;;;23.41;85.18;92770.83;1692652;82;21201;-74
2021/01/30 12:16:15;;;;;;;21.90;11.35;;;;;;;22.44;84.20;117067.73;1672306;83;21283;-69